createdAt,value
2022-09-12T00:00:28.707Z,0.00
2022-09-12T00:01:01.156Z,0.00
2022-09-12T00:01:33.630Z,0.00
2022-09-12T00:02:21.275Z,0.00
2022-09-12T00:02:53.543Z,0.00
2022-09-12T00:03:24.611Z,0.00
2022-09-12T00:03:42.330Z,0.00
2022-09-12T00:04:12.430Z,0.00
2022-09-12T00:04:35.856Z,0.00
2022-09-12T00:05:01.131Z,0.00
2022-09-12T00:05:33.340Z,0.00
2022-09-12T00:06:05.110Z,0.00
2022-09-12T00:06:35.399Z,0.00
2022-09-12T00:07:09.797Z,0.00
2022-09-12T00:07:34.465Z,0.00
2022-09-12T00:07:57.524Z,0.00
2022-09-12T00:08:28.411Z,0.00
2022-09-12T00:09:00.475Z,0.00
2022-09-12T00:09:33.935Z,0.00
2022-09-12T00:10:04.725Z,0.00
2022-09-12T00:10:35.331Z,0.00
2022-09-12T00:10:53.679Z,0.00
2022-09-12T00:11:24.429Z,0.00
2022-09-12T00:11:41.679Z,0.00
2022-09-12T00:12:12.520Z,0.00
2022-09-12T00:12:34.724Z,0.00
2022-09-12T00:13:01.175Z,0.00
2022-09-12T00:13:32.511Z,0.00
2022-09-12T00:14:04.488Z,0.00
2022-09-12T00:14:35.335Z,0.00
2022-09-12T00:14:52.951Z,0.00
2022-09-12T00:15:25.506Z,0.00
2022-09-12T00:15:43.748Z,0.00
2022-09-12T00:16:12.558Z,0.00
2022-09-12T00:16:35.382Z,0.00
2022-09-12T00:17:00.399Z,0.00
2022-09-12T00:17:34.286Z,0.00
2022-09-12T00:18:04.475Z,0.00
2022-09-12T00:18:35.327Z,0.00
2022-09-12T00:18:53.104Z,0.00
2022-09-12T00:19:25.313Z,0.00
2022-09-12T00:19:42.432Z,0.00
2022-09-12T00:20:13.548Z,0.00
2022-09-12T00:20:34.422Z,0.00
2022-09-12T00:21:01.527Z,0.00
2022-09-12T00:21:33.242Z,0.00
2022-09-12T00:22:04.473Z,0.00
2022-09-12T00:22:34.522Z,0.00
2022-09-12T00:22:53.250Z,0.00
2022-09-12T00:23:24.573Z,0.00
2022-09-12T00:23:42.062Z,0.00
2022-09-12T00:24:15.238Z,0.00
2022-09-12T00:24:35.488Z,0.00
2022-09-12T00:25:00.661Z,0.00
2022-09-12T00:25:32.529Z,0.00
2022-09-12T00:26:04.435Z,0.00
2022-09-12T00:26:37.523Z,0.00
2022-09-12T00:27:08.520Z,0.00
2022-09-12T00:27:35.965Z,0.00
2022-09-12T00:27:56.432Z,0.00
2022-09-12T00:28:29.121Z,0.00
2022-09-12T00:29:00.447Z,0.00
2022-09-12T00:29:33.038Z,0.00
2022-09-12T00:30:04.724Z,0.00
2022-09-12T00:30:40.281Z,0.00
2022-09-12T00:31:08.791Z,0.00
2022-09-12T00:31:34.548Z,0.00
2022-09-12T00:31:57.246Z,0.00
2022-09-12T00:32:28.511Z,0.00
2022-09-12T00:33:01.677Z,0.00
2022-09-12T00:33:32.520Z,0.00
2022-09-12T00:34:04.527Z,0.00
2022-09-12T00:34:35.920Z,0.00
2022-09-12T00:34:52.418Z,0.00
2022-09-12T00:35:25.362Z,0.00
2022-09-12T00:35:42.530Z,0.00
2022-09-12T00:36:12.567Z,0.00
2022-09-12T00:36:35.322Z,0.00
2022-09-12T00:37:00.429Z,0.00
2022-09-12T00:37:32.423Z,0.00
2022-09-12T00:38:04.529Z,0.00
2022-09-12T00:38:34.555Z,0.00
2022-09-12T00:38:52.507Z,0.00
2022-09-12T00:39:25.171Z,0.00
2022-09-12T00:39:42.380Z,0.00
2022-09-12T00:40:12.628Z,0.00
2022-09-12T00:40:34.469Z,0.00
2022-09-12T00:41:01.958Z,0.00
2022-09-12T00:41:32.479Z,0.00
2022-09-12T00:42:04.438Z,0.00
2022-09-12T00:42:36.397Z,0.00
2022-09-12T00:43:08.568Z,0.00
2022-09-12T00:43:34.542Z,0.00
2022-09-12T00:43:56.419Z,0.00
2022-09-12T00:44:29.217Z,0.00
2022-09-12T00:45:00.639Z,0.00
2022-09-12T00:45:33.460Z,0.00
2022-09-12T00:46:04.427Z,0.00
2022-09-12T00:46:34.486Z,0.00
2022-09-12T00:47:09.124Z,0.00
2022-09-12T00:47:35.496Z,0.00
2022-09-12T00:47:56.439Z,0.00
2022-09-12T00:48:28.486Z,0.00
2022-09-12T00:49:00.428Z,0.00
2022-09-12T00:49:33.651Z,0.00
2022-09-12T00:50:04.532Z,0.00
2022-09-12T00:50:36.442Z,0.00
2022-09-12T00:51:09.406Z,0.00
2022-09-12T00:51:36.603Z,0.00
2022-09-12T00:51:56.517Z,0.00
2022-09-12T00:52:28.460Z,0.00
2022-09-12T00:53:00.410Z,0.00
2022-09-12T00:53:33.618Z,0.00
2022-09-12T00:54:04.553Z,0.00
2022-09-12T00:54:34.528Z,0.00
2022-09-12T00:54:53.473Z,0.00
2022-09-12T00:55:24.638Z,0.00
2022-09-12T00:55:56.449Z,0.00
2022-09-12T00:56:28.536Z,0.00
2022-09-12T00:57:01.414Z,0.00
2022-09-12T00:57:33.330Z,0.00
2022-09-12T00:58:04.486Z,0.00
2022-09-12T00:58:34.698Z,0.00
2022-09-12T00:58:52.411Z,0.00
2022-09-12T00:59:25.144Z,0.00
2022-09-12T00:59:42.225Z,0.00
2022-09-12T01:00:12.613Z,0.00
2022-09-12T01:00:34.544Z,0.00
2022-09-12T01:01:00.460Z,0.00
2022-09-12T01:01:33.220Z,0.00
2022-09-12T01:02:04.508Z,0.00
2022-09-12T01:02:35.122Z,0.00
2022-09-12T01:02:53.198Z,0.00
2022-09-12T01:03:24.559Z,0.00
2022-09-12T01:03:56.494Z,0.00
2022-09-12T01:04:28.446Z,0.00
2022-09-12T01:05:00.755Z,0.00
2022-09-12T01:05:32.439Z,0.00
2022-09-12T01:06:04.536Z,0.00
2022-09-12T01:06:35.240Z,0.00
2022-09-12T01:06:52.682Z,0.00
2022-09-12T01:07:25.495Z,0.00
2022-09-12T01:07:56.533Z,0.00
2022-09-12T01:08:28.511Z,0.00
2022-09-12T01:09:00.395Z,0.00
2022-09-12T01:09:32.418Z,0.00
2022-09-12T01:10:04.619Z,0.00
2022-09-12T01:10:34.988Z,0.00
2022-09-12T01:10:53.383Z,0.00
2022-09-12T01:11:25.339Z,0.00
2022-09-12T01:11:42.402Z,0.00
2022-09-12T01:12:12.987Z,0.00
2022-09-12T01:12:35.573Z,0.00
2022-09-12T01:13:02.231Z,0.00
2022-09-12T01:13:33.142Z,0.00
2022-09-12T01:14:04.443Z,0.00
2022-09-12T01:14:34.952Z,0.00
2022-09-12T01:14:53.126Z,0.00
2022-09-12T01:15:25.588Z,0.00
2022-09-12T01:15:43.017Z,0.00
2022-09-12T01:16:13.221Z,0.00
2022-09-12T01:16:34.575Z,0.00
2022-09-12T01:17:00.908Z,0.00
2022-09-12T01:17:33.019Z,0.00
2022-09-12T01:18:04.453Z,0.00
2022-09-12T01:18:34.519Z,0.00
2022-09-12T01:19:10.198Z,0.00
2022-09-12T01:19:34.489Z,0.00
2022-09-12T01:19:56.444Z,0.00
2022-09-12T01:20:28.557Z,0.00
2022-09-12T01:21:00.454Z,0.00
2022-09-12T01:21:32.535Z,0.00
2022-09-12T01:22:05.052Z,0.00
2022-09-12T01:22:34.422Z,0.00
2022-09-12T01:22:52.396Z,0.00
2022-09-12T01:23:25.142Z,0.00
2022-09-12T01:23:42.328Z,0.00
2022-09-12T01:24:12.405Z,0.00
2022-09-12T01:24:34.512Z,0.00
2022-09-12T01:25:01.318Z,0.00
2022-09-12T01:25:32.521Z,0.00
2022-09-12T01:26:05.970Z,0.00
2022-09-12T01:26:35.256Z,0.00
2022-09-12T01:26:52.534Z,0.00
2022-09-12T01:27:25.218Z,0.00
2022-09-12T01:27:42.339Z,0.00
2022-09-12T01:28:12.547Z,0.00
2022-09-12T01:28:35.429Z,0.00
2022-09-12T01:29:00.434Z,0.00
2022-09-12T01:29:33.323Z,0.00
2022-09-12T01:30:04.648Z,0.00
2022-09-12T01:30:34.580Z,0.00
2022-09-12T01:30:53.338Z,0.00
2022-09-12T01:31:24.388Z,0.00
2022-09-12T01:31:42.417Z,0.00
2022-09-12T01:32:12.532Z,0.00
2022-09-12T01:32:35.125Z,0.00
2022-09-12T01:33:05.947Z,0.00
2022-09-12T01:33:37.404Z,0.00
2022-09-12T01:34:04.434Z,0.00
2022-09-12T01:34:35.278Z,0.00
2022-09-12T01:34:52.454Z,0.00
2022-09-12T01:35:24.718Z,0.00
2022-09-12T01:35:41.582Z,0.00
2022-09-12T01:36:13.186Z,0.00
2022-09-12T01:36:35.228Z,0.00
2022-09-12T01:37:00.521Z,0.00
2022-09-12T01:37:33.507Z,0.00
2022-09-12T01:38:04.416Z,0.00
2022-09-12T01:38:37.328Z,0.00
2022-09-12T01:39:08.485Z,0.00
2022-09-12T01:39:35.448Z,0.00
2022-09-12T01:39:57.998Z,0.00
2022-09-12T01:40:28.496Z,0.00
2022-09-12T01:41:00.417Z,0.00
2022-09-12T01:41:33.983Z,0.00
2022-09-12T01:42:04.490Z,0.00
2022-09-12T01:42:35.783Z,0.00
2022-09-12T01:42:52.751Z,0.00
2022-09-12T01:43:25.169Z,0.00
2022-09-12T01:43:42.516Z,0.00
2022-09-12T01:44:13.528Z,0.00
2022-09-12T01:44:36.175Z,0.00
2022-09-12T01:45:00.525Z,0.00
2022-09-12T01:45:33.944Z,0.00
2022-09-12T01:46:04.502Z,0.00
2022-09-12T01:46:34.517Z,0.00
2022-09-12T01:46:53.082Z,0.00
2022-09-12T01:47:24.420Z,0.00
2022-09-12T01:47:41.514Z,0.00
2022-09-12T01:48:13.638Z,0.00
2022-09-12T01:48:34.533Z,0.00
2022-09-12T01:49:00.694Z,0.00
2022-09-12T01:49:33.148Z,0.00
2022-09-12T01:50:04.532Z,0.00
2022-09-12T01:50:34.485Z,0.00
2022-09-12T01:50:53.368Z,0.00
2022-09-12T01:51:24.477Z,0.00
2022-09-12T01:51:42.360Z,0.00
2022-09-12T01:52:13.091Z,0.00
2022-09-12T01:52:34.557Z,0.00
2022-09-12T01:53:00.475Z,0.00
2022-09-12T01:53:33.124Z,0.00
2022-09-12T01:54:04.373Z,0.00
2022-09-12T01:54:36.628Z,0.00
2022-09-12T01:55:09.859Z,0.00
2022-09-12T01:55:34.495Z,0.00
2022-09-12T01:55:57.346Z,0.00
2022-09-12T01:56:28.380Z,0.00
2022-09-12T01:57:00.515Z,0.00
2022-09-12T01:57:32.422Z,0.00
2022-09-12T01:58:04.390Z,0.00
2022-09-12T01:58:35.262Z,0.00
2022-09-12T01:58:52.580Z,0.00
2022-09-12T01:59:24.507Z,0.00
2022-09-12T01:59:41.994Z,0.00
2022-09-12T02:00:14.232Z,0.00
2022-09-12T02:00:35.787Z,0.00
2022-09-12T02:01:00.453Z,0.00
2022-09-12T02:01:32.472Z,0.00
2022-09-12T02:02:04.579Z,0.00
2022-09-12T02:02:35.128Z,0.00
2022-09-12T02:02:53.210Z,0.00
2022-09-12T02:03:24.519Z,0.00
2022-09-12T02:03:42.481Z,0.00
2022-09-12T02:04:13.310Z,0.00
2022-09-12T02:04:34.557Z,0.00
2022-09-12T02:05:00.472Z,0.00
2022-09-12T02:05:35.446Z,0.00
2022-09-12T02:06:04.550Z,0.00
2022-09-12T02:06:37.225Z,0.00
2022-09-12T02:07:08.380Z,0.00
2022-09-12T02:07:34.574Z,0.00
2022-09-12T02:07:57.133Z,0.00
2022-09-12T02:08:28.499Z,0.00
2022-09-12T02:09:00.360Z,0.00
2022-09-12T02:09:32.424Z,0.00
2022-09-12T02:10:04.599Z,0.00
2022-09-12T02:10:34.547Z,0.00
2022-09-12T02:10:52.479Z,0.00
2022-09-12T02:11:25.160Z,0.00
2022-09-12T02:11:42.312Z,0.00
2022-09-12T02:12:12.491Z,0.00
2022-09-12T02:12:34.461Z,0.00
2022-09-12T02:13:01.094Z,0.00
2022-09-12T02:13:32.373Z,0.00
2022-09-12T02:14:05.095Z,0.00
2022-09-12T02:14:34.443Z,0.00
2022-09-12T02:14:52.545Z,0.00
2022-09-12T02:15:26.394Z,0.00
2022-09-12T02:15:56.479Z,0.00
2022-09-12T02:16:29.230Z,0.00
2022-09-12T02:17:00.499Z,0.00
2022-09-12T02:17:33.016Z,0.00
2022-09-12T02:18:04.431Z,0.00
2022-09-12T02:18:34.891Z,0.00
2022-09-12T02:18:53.275Z,0.00
2022-09-12T02:19:25.490Z,0.00
2022-09-12T02:19:56.392Z,0.00
2022-09-12T02:20:46.855Z,0.00
2022-09-12T02:21:00.452Z,0.00
2022-09-12T02:21:32.518Z,0.00
2022-09-12T02:22:04.736Z,0.00
2022-09-12T02:22:34.430Z,0.00
2022-09-12T02:22:54.342Z,0.00
2022-09-12T02:23:25.225Z,0.00
2022-09-12T02:23:42.803Z,0.00
2022-09-12T02:24:12.383Z,0.00
2022-09-12T02:24:34.761Z,0.00
2022-09-12T02:25:02.542Z,0.00
2022-09-12T02:25:32.508Z,0.00
2022-09-12T02:26:06.390Z,0.00
2022-09-12T02:26:37.125Z,0.00
2022-09-12T02:27:08.422Z,0.00
2022-09-12T02:27:35.521Z,0.00
2022-09-12T02:27:56.508Z,0.00
2022-09-12T02:28:29.467Z,0.00
2022-09-12T02:29:17.158Z,0.00
2022-09-12T02:29:35.708Z,0.00
2022-09-12T02:30:04.651Z,0.00
2022-09-12T02:30:34.783Z,0.00
2022-09-12T02:30:52.557Z,0.00
2022-09-12T02:31:25.219Z,0.00
2022-09-12T02:31:42.357Z,0.00
2022-09-12T02:32:13.492Z,0.00
2022-09-12T02:32:35.267Z,0.00
2022-09-12T02:33:02.116Z,0.00
2022-09-12T02:33:32.419Z,0.00
2022-09-12T02:34:04.493Z,0.00
2022-09-12T02:34:36.284Z,0.00
2022-09-12T02:35:08.620Z,0.00
2022-09-12T02:35:34.492Z,0.00
2022-09-12T02:35:57.639Z,0.00
2022-09-12T02:36:30.508Z,0.00
2022-09-12T02:37:00.436Z,0.00
2022-09-12T02:37:33.372Z,0.00
2022-09-12T02:38:05.691Z,0.00
2022-09-12T02:38:34.543Z,0.00
2022-09-12T02:38:52.385Z,0.00
2022-09-12T02:39:25.238Z,0.00
2022-09-12T02:39:45.170Z,0.00
2022-09-12T02:40:12.670Z,0.00
2022-09-12T02:40:34.443Z,0.00
2022-09-12T02:41:00.591Z,0.00
2022-09-12T02:41:32.419Z,0.00
2022-09-12T02:42:04.482Z,0.00
2022-09-12T02:42:35.165Z,0.00
2022-09-12T02:42:52.388Z,0.00
2022-09-12T02:43:25.174Z,0.00
2022-09-12T02:43:42.310Z,0.00
2022-09-12T02:44:12.476Z,0.00
2022-09-12T02:44:34.577Z,0.00
2022-09-12T02:45:01.242Z,0.00
2022-09-12T02:45:32.419Z,0.00
2022-09-12T02:46:05.241Z,0.00
2022-09-12T02:46:36.469Z,0.00
2022-09-12T02:47:09.858Z,0.00
2022-09-12T02:47:34.520Z,0.00
2022-09-12T02:47:56.442Z,0.00
2022-09-12T02:48:28.793Z,0.00
2022-09-12T02:49:00.502Z,0.00
2022-09-12T02:49:32.448Z,0.00
2022-09-12T02:50:04.633Z,0.00
2022-09-12T02:50:35.349Z,0.00
2022-09-12T02:50:54.064Z,0.00
2022-09-12T02:51:25.074Z,0.00
2022-09-12T02:51:43.759Z,0.00
2022-09-12T02:52:12.507Z,0.00
2022-09-12T02:52:35.768Z,0.00
2022-09-12T02:53:01.363Z,0.00
2022-09-12T02:53:32.581Z,0.00
2022-09-12T02:54:04.725Z,0.00
2022-09-12T02:54:34.446Z,0.00
2022-09-12T02:55:08.557Z,0.00
2022-09-12T02:55:34.563Z,0.00
2022-09-12T02:55:56.617Z,0.00
2022-09-12T02:56:29.100Z,0.00
2022-09-12T02:57:00.373Z,0.00
2022-09-12T02:57:32.522Z,0.00
2022-09-12T02:58:04.506Z,0.00
2022-09-12T02:58:35.606Z,0.00
2022-09-12T02:59:09.588Z,0.00
2022-09-12T02:59:35.078Z,0.00
2022-09-12T02:59:58.907Z,0.00
2022-09-12T03:00:30.314Z,0.00
2022-09-12T03:01:00.401Z,0.00
2022-09-12T03:01:32.418Z,0.00
2022-09-12T03:02:06.525Z,0.00
2022-09-12T03:02:35.329Z,0.00
2022-09-12T03:02:55.861Z,0.00
2022-09-12T03:03:24.369Z,0.00
2022-09-12T03:03:43.544Z,0.00
2022-09-12T03:04:12.470Z,0.00
2022-09-12T03:04:34.760Z,0.00
2022-09-12T03:05:01.505Z,0.00
2022-09-12T03:05:33.376Z,0.00
2022-09-12T03:06:04.433Z,0.00
2022-09-12T03:06:35.543Z,0.00
2022-09-12T03:06:53.739Z,0.00
2022-09-12T03:07:24.371Z,0.00
2022-09-12T03:07:41.535Z,0.00
2022-09-12T03:08:13.214Z,0.00
2022-09-12T03:08:34.949Z,0.00
2022-09-12T03:09:00.496Z,0.00
2022-09-12T03:09:33.078Z,0.00
2022-09-12T03:10:04.515Z,0.00
2022-09-12T03:10:36.341Z,0.00
2022-09-12T03:11:08.474Z,0.00
2022-09-12T03:11:34.539Z,0.00
2022-09-12T03:11:58.112Z,0.00
2022-09-12T03:12:28.418Z,0.00
2022-09-12T03:13:01.641Z,0.00
2022-09-12T03:13:32.480Z,0.00
2022-09-12T03:14:05.278Z,0.00
2022-09-12T03:14:35.544Z,0.00
2022-09-12T03:14:52.478Z,0.00
2022-09-12T03:15:25.194Z,0.00
2022-09-12T03:15:43.384Z,0.00
2022-09-12T03:16:12.449Z,0.00
2022-09-12T03:16:34.702Z,0.00
2022-09-12T03:17:00.469Z,0.00
2022-09-12T03:17:32.425Z,0.00
2022-09-12T03:18:05.768Z,0.00
2022-09-12T03:18:34.572Z,0.00
2022-09-12T03:19:08.521Z,0.00
2022-09-12T03:19:35.549Z,0.00
2022-09-12T03:19:56.877Z,0.00
2022-09-12T03:20:29.339Z,0.00
2022-09-12T03:21:00.421Z,0.00
2022-09-12T03:21:32.972Z,0.00
2022-09-12T03:22:05.221Z,0.00
2022-09-12T03:22:35.160Z,0.00
2022-09-12T03:22:52.882Z,0.00
2022-09-12T03:23:24.366Z,0.00
2022-09-12T03:23:41.593Z,0.00
2022-09-12T03:24:12.555Z,0.00
2022-09-12T03:24:34.442Z,0.00
2022-09-12T03:25:01.183Z,0.00
2022-09-12T03:25:32.368Z,0.00
2022-09-12T03:26:04.584Z,0.00
2022-09-12T03:26:35.836Z,0.00
2022-09-12T03:26:52.336Z,0.00
2022-09-12T03:27:25.120Z,0.00
2022-09-12T03:27:43.555Z,0.00
2022-09-12T03:28:14.584Z,0.00
2022-09-12T03:28:37.127Z,0.00
2022-09-12T03:29:00.369Z,0.00
2022-09-12T03:29:33.113Z,0.00
2022-09-12T03:30:06.618Z,0.00
2022-09-12T03:30:34.608Z,0.00
2022-09-12T03:30:53.488Z,0.00
2022-09-12T03:31:24.356Z,0.00
2022-09-12T03:31:41.481Z,0.00
2022-09-12T03:32:12.816Z,0.00
2022-09-12T03:32:34.756Z,0.00
2022-09-12T03:33:01.289Z,0.00
2022-09-12T03:33:32.362Z,0.00
2022-09-12T03:34:04.410Z,0.00
2022-09-12T03:34:34.438Z,0.00
2022-09-12T03:34:52.556Z,0.00
2022-09-12T03:35:25.424Z,0.00
2022-09-12T03:35:42.895Z,0.00
2022-09-12T03:36:12.405Z,0.00
2022-09-12T03:36:34.529Z,0.00
2022-09-12T03:37:01.789Z,0.00
2022-09-12T03:37:32.536Z,0.00
2022-09-12T03:38:04.848Z,0.00
2022-09-12T03:38:35.708Z,0.00
2022-09-12T03:39:07.845Z,0.00
2022-09-12T03:39:25.087Z,0.00
2022-09-12T03:39:57.327Z,0.00
2022-09-12T03:40:29.312Z,0.00
2022-09-12T03:41:00.386Z,0.00
2022-09-12T03:41:33.056Z,0.00
2022-09-12T03:42:04.397Z,0.00
2022-09-12T03:42:34.448Z,0.00
2022-09-12T03:43:09.215Z,0.00
2022-09-12T03:43:36.122Z,0.00
2022-09-12T03:43:57.861Z,0.00
2022-09-12T03:44:29.176Z,0.00
2022-09-12T03:45:00.470Z,0.00
2022-09-12T03:45:32.559Z,0.00
2022-09-12T03:46:04.524Z,0.00
2022-09-12T03:46:34.563Z,0.00
2022-09-12T03:46:52.356Z,0.00
2022-09-12T03:47:26.515Z,0.00
2022-09-12T03:47:56.682Z,0.00
2022-09-12T03:48:28.361Z,0.00
2022-09-12T03:49:00.373Z,0.00
2022-09-12T03:49:32.368Z,0.00
2022-09-12T03:50:04.596Z,0.00
2022-09-12T03:50:34.586Z,0.00
2022-09-12T03:50:54.136Z,0.00
2022-09-12T03:51:24.380Z,0.00
2022-09-12T03:51:42.324Z,0.00
2022-09-12T03:52:13.055Z,0.00
2022-09-12T03:52:34.446Z,0.00
2022-09-12T03:53:00.487Z,0.00
2022-09-12T03:53:32.362Z,0.00
2022-09-12T03:54:04.411Z,0.00
2022-09-12T03:54:34.790Z,0.00
2022-09-12T03:54:52.454Z,0.00
2022-09-12T03:55:25.176Z,0.00
2022-09-12T03:55:42.281Z,0.00
2022-09-12T03:56:13.399Z,0.00
2022-09-12T03:56:34.461Z,0.00
2022-09-12T03:57:00.466Z,0.00
2022-09-12T03:57:33.089Z,0.00
2022-09-12T03:58:04.402Z,0.00
2022-09-12T03:58:35.230Z,0.00
2022-09-12T03:58:52.841Z,0.00
2022-09-12T03:59:24.497Z,0.00
2022-09-12T03:59:41.590Z,0.00
2022-09-12T04:00:15.379Z,0.00
2022-09-12T04:00:34.548Z,0.00
2022-09-12T04:01:01.078Z,0.00
2022-09-12T04:01:32.589Z,0.00
2022-09-12T04:02:04.381Z,0.00
2022-09-12T04:02:35.692Z,0.00
2022-09-12T04:02:53.170Z,0.00
2022-09-12T04:03:25.062Z,0.00
2022-09-12T04:03:42.207Z,0.00
2022-09-12T04:04:12.385Z,0.00
2022-09-12T04:04:34.461Z,0.00
2022-09-12T04:05:01.309Z,0.00
2022-09-12T04:05:32.438Z,0.00
2022-09-12T04:06:05.066Z,0.00
2022-09-12T04:06:34.477Z,0.00
2022-09-12T04:06:53.244Z,0.00
2022-09-12T04:07:25.181Z,0.00
2022-09-12T04:07:42.705Z,0.00
2022-09-12T04:08:13.248Z,0.00
2022-09-12T04:08:36.509Z,0.00
2022-09-12T04:09:01.133Z,0.00
2022-09-12T04:09:32.354Z,0.00
2022-09-12T04:10:05.307Z,0.00
2022-09-12T04:10:34.656Z,0.00
2022-09-12T04:10:52.463Z,0.00
2022-09-12T04:11:24.406Z,0.00
2022-09-12T04:11:41.945Z,0.00
2022-09-12T04:12:14.003Z,0.00
2022-09-12T04:12:36.158Z,0.00
2022-09-12T04:13:00.462Z,0.00
2022-09-12T04:13:34.443Z,0.00
2022-09-12T04:14:04.382Z,0.00
2022-09-12T04:14:36.587Z,0.00
2022-09-12T04:15:08.530Z,0.00
2022-09-12T04:15:34.794Z,0.00
2022-09-12T04:15:57.340Z,0.00
2022-09-12T04:16:28.766Z,0.00
2022-09-12T04:17:01.082Z,0.00
2022-09-12T04:17:32.371Z,0.00
2022-09-12T04:18:06.166Z,0.00
2022-09-12T04:18:36.966Z,0.00
2022-09-12T04:19:08.365Z,0.00
2022-09-12T04:19:36.104Z,0.00
2022-09-12T04:19:56.359Z,0.00
2022-09-12T04:20:29.212Z,0.00
2022-09-12T04:21:00.437Z,0.00
2022-09-12T04:21:34.071Z,0.00
2022-09-12T04:22:04.387Z,0.00
2022-09-12T04:22:35.280Z,0.00
2022-09-12T04:22:52.738Z,0.00
2022-09-12T04:23:24.499Z,0.00
2022-09-12T04:23:41.513Z,0.00
2022-09-12T04:24:13.081Z,0.00
2022-09-12T04:24:34.536Z,0.00
2022-09-12T04:25:01.463Z,0.00
2022-09-12T04:25:32.852Z,0.00
2022-09-12T04:26:04.390Z,0.00
2022-09-12T04:26:34.480Z,0.00
2022-09-12T04:26:53.344Z,0.00
2022-09-12T04:27:25.120Z,0.00
2022-09-12T04:27:44.380Z,0.00
2022-09-12T04:28:13.183Z,0.00
2022-09-12T04:28:34.530Z,0.00
2022-09-12T04:29:00.398Z,0.00
2022-09-12T04:29:33.003Z,0.00
2022-09-12T04:30:04.477Z,0.00
2022-09-12T04:30:35.275Z,0.00
2022-09-12T04:30:53.112Z,0.00
2022-09-12T04:31:24.444Z,0.00
2022-09-12T04:31:43.007Z,0.00
2022-09-12T04:32:12.505Z,0.00
2022-09-12T04:32:35.385Z,0.00
2022-09-12T04:33:02.205Z,0.00
2022-09-12T04:33:34.548Z,0.00
2022-09-12T04:34:05.161Z,0.00
2022-09-12T04:34:34.536Z,0.00
2022-09-12T04:34:52.417Z,0.00
2022-09-12T04:35:25.829Z,0.00
2022-09-12T04:35:43.516Z,0.00
2022-09-12T04:36:12.471Z,0.00
2022-09-12T04:36:35.489Z,0.00
2022-09-12T04:37:00.361Z,0.00
2022-09-12T04:37:32.367Z,0.00
2022-09-12T04:38:04.480Z,0.00
2022-09-12T04:38:34.618Z,0.00
2022-09-12T04:38:52.485Z,0.00
2022-09-12T04:39:25.187Z,0.00
2022-09-12T04:39:45.079Z,0.00
2022-09-12T04:40:14.489Z,0.00
2022-09-12T04:40:34.966Z,0.00
2022-09-12T04:41:00.903Z,0.00
2022-09-12T04:41:33.207Z,0.00
2022-09-12T04:42:04.379Z,0.00
2022-09-12T04:42:36.749Z,0.00
2022-09-12T04:43:12.373Z,0.00
2022-09-12T04:43:34.817Z,0.00
2022-09-12T04:43:57.207Z,0.00
2022-09-12T04:44:28.452Z,0.00
2022-09-12T04:45:00.674Z,0.00
2022-09-12T04:45:32.879Z,0.00
2022-09-12T04:46:04.435Z,0.00
2022-09-12T04:46:34.551Z,0.00
2022-09-12T04:46:52.611Z,0.00
2022-09-12T04:47:24.983Z,0.00
2022-09-12T04:47:42.096Z,0.00
2022-09-12T04:48:12.396Z,0.00
2022-09-12T04:48:34.713Z,0.00
2022-09-12T04:49:01.072Z,0.00
2022-09-12T04:49:32.550Z,0.00
2022-09-12T04:50:04.760Z,0.00
2022-09-12T04:50:36.242Z,0.00
2022-09-12T04:51:08.516Z,0.00
2022-09-12T04:51:34.464Z,0.00
2022-09-12T04:51:56.419Z,0.00
2022-09-12T04:52:29.142Z,0.00
2022-09-12T04:53:01.335Z,0.00
2022-09-12T04:53:32.441Z,0.00
2022-09-12T04:54:04.433Z,0.00
2022-09-12T04:54:34.465Z,0.00
2022-09-12T04:54:54.991Z,0.00
2022-09-12T04:55:25.469Z,0.00
2022-09-12T04:55:42.568Z,0.00
2022-09-12T04:56:12.369Z,0.00
2022-09-12T04:56:34.555Z,0.00
2022-09-12T04:57:02.172Z,0.36
2022-09-12T04:57:32.478Z,0.00
2022-09-12T04:58:05.379Z,0.00
2022-09-12T04:58:34.460Z,0.00
2022-09-12T04:58:52.347Z,0.00
2022-09-12T04:59:24.946Z,0.36
2022-09-12T04:59:42.061Z,0.36
2022-09-12T05:00:12.767Z,0.00
2022-09-12T05:00:35.351Z,0.36
2022-09-12T05:01:01.385Z,0.36
2022-09-12T05:01:32.501Z,0.36
2022-09-12T05:02:05.996Z,0.36
2022-09-12T05:02:34.615Z,0.85
2022-09-12T05:02:52.350Z,0.36
2022-09-12T05:03:25.235Z,0.00
2022-09-12T05:03:42.696Z,0.36
2022-09-12T05:04:12.391Z,0.36
2022-09-12T05:04:35.381Z,0.00
2022-09-12T05:05:01.493Z,1.22
2022-09-12T05:05:33.694Z,0.85
2022-09-12T05:06:04.495Z,1.22
2022-09-12T05:06:34.667Z,1.71
2022-09-12T05:06:53.120Z,1.22
2022-09-12T05:07:25.445Z,1.71
2022-09-12T05:07:42.511Z,1.71
2022-09-12T05:08:13.780Z,2.08
2022-09-12T05:08:35.463Z,2.08
2022-09-12T05:09:00.433Z,1.71
2022-09-12T05:09:33.267Z,2.57
2022-09-12T05:10:04.638Z,2.57
2022-09-12T05:10:35.092Z,2.57
2022-09-12T05:10:53.344Z,2.57
2022-09-12T05:11:26.585Z,2.94
2022-09-12T05:12:03.187Z,2.94
2022-09-12T05:12:13.194Z,2.94
2022-09-12T05:12:35.241Z,3.43
2022-09-12T05:13:00.529Z,2.94
2022-09-12T05:13:34.187Z,3.43
2022-09-12T05:14:04.453Z,3.79
2022-09-12T05:14:34.541Z,3.43
2022-09-12T05:14:53.168Z,4.77
2022-09-12T05:15:24.598Z,3.79
2022-09-12T05:15:42.578Z,4.77
2022-09-12T05:16:15.083Z,5.14
2022-09-12T05:16:35.032Z,5.14
2022-09-12T05:17:00.569Z,4.77
2022-09-12T05:17:32.421Z,5.63
2022-09-12T05:18:04.413Z,5.14
2022-09-12T05:18:35.375Z,5.63
2022-09-12T05:18:52.517Z,5.63
2022-09-12T05:19:26.053Z,6.48
2022-09-12T05:19:42.445Z,5.63
2022-09-12T05:20:12.556Z,6.48
2022-09-12T05:20:34.665Z,6.48
2022-09-12T05:21:00.500Z,6.48
2022-09-12T05:21:35.363Z,6.48
2022-09-12T05:22:04.456Z,6.48
2022-09-12T05:22:35.547Z,7.70
2022-09-12T05:22:52.818Z,7.34
2022-09-12T05:23:24.478Z,7.70
2022-09-12T05:23:41.524Z,7.70
2022-09-12T05:24:13.217Z,7.70
2022-09-12T05:24:35.449Z,8.19
2022-09-12T05:25:00.659Z,8.56
2022-09-12T05:25:33.635Z,8.56
2022-09-12T05:26:04.440Z,9.05
2022-09-12T05:26:35.477Z,9.91
2022-09-12T05:27:08.714Z,8.56
2022-09-12T05:27:36.529Z,9.54
2022-09-12T05:27:56.645Z,10.39
2022-09-12T05:28:28.460Z,9.91
2022-09-12T05:29:01.258Z,9.91
2022-09-12T05:29:32.437Z,10.39
2022-09-12T05:30:05.374Z,11.25
2022-09-12T05:30:40.621Z,9.91
2022-09-12T05:31:09.029Z,10.77
2022-09-12T05:31:34.677Z,11.62
2022-09-12T05:31:56.627Z,12.11
2022-09-12T05:32:29.096Z,12.11
2022-09-12T05:33:01.749Z,12.48
2022-09-12T05:33:33.528Z,13.33
2022-09-12T05:34:04.527Z,12.97
2022-09-12T05:34:35.757Z,12.48
2022-09-12T05:34:53.021Z,13.33
2022-09-12T05:35:24.609Z,14.31
2022-09-12T05:35:42.112Z,13.33
2022-09-12T05:36:13.197Z,13.82
2022-09-12T05:36:34.541Z,14.31
2022-09-12T05:37:06.752Z,14.68
2022-09-12T05:37:32.552Z,14.31
2022-09-12T05:38:04.763Z,14.68
2022-09-12T05:38:36.051Z,15.17
2022-09-12T05:39:08.488Z,15.17
2022-09-12T05:39:34.565Z,16.02
2022-09-12T05:39:57.459Z,15.53
2022-09-12T05:40:29.554Z,16.39
2022-09-12T05:41:01.219Z,16.39
2022-09-12T05:41:32.487Z,16.02
2022-09-12T05:42:04.481Z,16.88
2022-09-12T05:42:37.136Z,17.25
2022-09-12T05:43:08.420Z,16.88
2022-09-12T05:43:35.156Z,17.25
2022-09-12T05:43:56.543Z,17.25
2022-09-12T05:44:29.112Z,18.11
2022-09-12T05:45:00.671Z,17.73
2022-09-12T05:45:32.496Z,18.60
2022-09-12T05:46:04.616Z,18.11
2022-09-12T05:46:35.442Z,19.08
2022-09-12T05:46:53.069Z,18.11
2022-09-12T05:47:25.414Z,19.08
2022-09-12T05:47:42.580Z,19.94
2022-09-12T05:48:12.481Z,19.08
2022-09-12T05:48:36.129Z,18.60
2022-09-12T05:49:00.480Z,20.31
2022-09-12T05:49:32.824Z,20.31
2022-09-12T05:50:04.559Z,21.16
2022-09-12T05:50:35.729Z,21.65
2022-09-12T05:50:52.352Z,22.02
2022-09-12T05:51:25.053Z,22.02
2022-09-12T05:51:42.879Z,22.02
2022-09-12T05:52:12.408Z,22.02
2022-09-12T05:52:34.649Z,22.87
2022-09-12T05:53:00.411Z,23.36
2022-09-12T05:53:32.464Z,23.36
2022-09-12T05:54:04.513Z,24.22
2022-09-12T05:54:34.548Z,24.22
2022-09-12T05:54:52.496Z,24.22
2022-09-12T05:55:25.529Z,24.71
2022-09-12T05:55:42.537Z,25.07
2022-09-12T05:56:12.430Z,25.07
2022-09-12T05:56:34.664Z,24.71
2022-09-12T05:57:00.543Z,25.56
2022-09-12T05:57:33.393Z,26.42
2022-09-12T05:58:05.191Z,26.42
2022-09-12T05:58:34.632Z,26.79
2022-09-12T05:58:53.262Z,27.28
2022-09-12T05:59:24.533Z,26.42
2022-09-12T05:59:41.615Z,27.28
2022-09-12T06:00:12.673Z,27.65
2022-09-12T06:00:34.715Z,28.14
2022-09-12T06:01:01.713Z,28.14
2022-09-12T06:01:32.445Z,28.14
2022-09-12T06:02:04.455Z,29.48
2022-09-12T06:02:35.594Z,28.99
2022-09-12T06:02:52.328Z,28.99
2022-09-12T06:03:27.201Z,29.85
2022-09-12T06:03:56.503Z,29.85
2022-09-12T06:04:28.435Z,29.85
2022-09-12T06:05:03.217Z,31.19
2022-09-12T06:05:32.528Z,30.70
2022-09-12T06:06:05.414Z,30.70
2022-09-12T06:06:36.363Z,30.70
2022-09-12T06:07:08.437Z,29.85
2022-09-12T06:07:34.548Z,30.70
2022-09-12T06:07:56.463Z,30.34
2022-09-12T06:08:29.272Z,31.56
2022-09-12T06:09:01.255Z,30.70
2022-09-12T06:09:32.547Z,30.70
2022-09-12T06:10:05.569Z,31.56